createdAt,value
2017-12-09T00:01:38.718Z,1.82
2017-12-09T00:04:06.137Z,1.93
2017-12-09T00:06:33.598Z,1.95
2017-12-09T00:09:00.996Z,1.97
2017-12-09T00:11:28.377Z,1.82
2017-12-09T00:13:55.854Z,1.69
2017-12-09T00:16:23.331Z,1.78
2017-12-09T00:18:50.766Z,1.79
2017-12-09T00:21:18.162Z,1.79
2017-12-09T00:23:45.553Z,1.61
2017-12-09T00:26:13.029Z,1.68
2017-12-09T00:28:40.426Z,1.64
2017-12-09T00:31:07.850Z,1.70
2017-12-09T00:33:35.249Z,1.86
2017-12-09T00:36:02.659Z,1.80
2017-12-09T00:38:30.044Z,1.53
2017-12-09T00:40:57.431Z,1.50
2017-12-09T00:43:24.820Z,1.48
2017-12-09T00:45:52.274Z,1.57
2017-12-09T00:48:19.668Z,1.56
2017-12-09T00:50:47.906Z,1.55
2017-12-09T00:53:15.283Z,1.54
2017-12-09T00:55:42.714Z,1.61
2017-12-09T00:58:10.173Z,1.77
2017-12-09T01:00:37.579Z,1.63
2017-12-09T01:03:04.982Z,1.59
2017-12-09T01:05:32.447Z,1.52
2017-12-09T01:07:59.857Z,1.63
2017-12-09T01:10:27.228Z,1.60
2017-12-09T01:12:54.706Z,1.49
2017-12-09T01:15:34.070Z,1.46
2017-12-09T01:18:13.486Z,1.38
2017-12-09T01:20:40.934Z,1.36
2017-12-09T01:23:08.318Z,1.54
2017-12-09T01:25:35.711Z,1.57
2017-12-09T01:28:03.194Z,1.50
2017-12-09T01:30:30.578Z,1.48
2017-12-09T01:32:57.963Z,1.49
2017-12-09T01:35:25.354Z,1.73
2017-12-09T01:37:52.814Z,1.50
2017-12-09T01:40:20.287Z,1.55
2017-12-09T01:42:47.744Z,1.49
2017-12-09T01:45:15.128Z,1.51
2017-12-09T01:47:42.511Z,1.42
2017-12-09T01:50:09.894Z,1.41
2017-12-09T01:52:37.277Z,1.33
2017-12-09T01:55:04.670Z,1.37
2017-12-09T01:57:32.058Z,1.45
2017-12-09T01:59:59.450Z,1.40
2017-12-09T02:02:26.842Z,1.36
2017-12-09T02:04:54.231Z,1.40
2017-12-09T02:07:21.619Z,1.46
2017-12-09T02:09:49.003Z,1.26
2017-12-09T02:12:16.489Z,1.42
2017-12-09T02:14:43.877Z,1.38
2017-12-09T02:17:11.303Z,1.42
2017-12-09T02:19:38.693Z,1.37
2017-12-09T02:22:06.110Z,1.32
2017-12-09T02:24:33.503Z,1.45
2017-12-09T02:27:00.922Z,1.49
2017-12-09T02:29:28.378Z,1.50
2017-12-09T02:31:55.835Z,1.51
2017-12-09T02:34:23.278Z,1.51
2017-12-09T02:36:50.745Z,1.46
2017-12-09T02:39:18.202Z,1.54
2017-12-09T02:41:45.593Z,1.58
2017-12-09T02:44:13.010Z,1.42
2017-12-09T02:46:40.403Z,1.49
2017-12-09T02:49:07.822Z,1.51
2017-12-09T02:51:35.279Z,1.61
2017-12-09T02:54:02.738Z,1.78
2017-12-09T02:56:30.124Z,1.82
2017-12-09T02:58:57.542Z,1.66
2017-12-09T03:01:24.933Z,1.68
2017-12-09T03:03:52.312Z,1.83
2017-12-09T03:06:19.709Z,1.76
2017-12-09T03:08:47.086Z,1.69
2017-12-09T03:11:14.483Z,1.78
2017-12-09T03:13:41.871Z,1.83
2017-12-09T03:16:09.246Z,1.75
2017-12-09T03:18:36.626Z,1.79
2017-12-09T03:21:04.020Z,1.98
2017-12-09T03:23:31.407Z,1.98
2017-12-09T03:25:58.843Z,2.00
2017-12-09T03:28:26.323Z,2.10
2017-12-09T03:30:53.696Z,2.09
2017-12-09T03:33:21.102Z,1.90
2017-12-09T03:35:48.491Z,2.00
2017-12-09T03:38:15.978Z,2.00
2017-12-09T03:40:43.442Z,1.97
2017-12-09T03:43:10.898Z,2.08
2017-12-09T03:45:38.286Z,2.15
2017-12-09T03:48:05.678Z,2.16
2017-12-09T03:50:33.058Z,2.09
2017-12-09T03:53:00.509Z,1.92
2017-12-09T03:55:27.964Z,1.91
2017-12-09T03:57:55.337Z,1.89
2017-12-09T04:00:22.777Z,1.99
2017-12-09T04:02:50.167Z,1.90
2017-12-09T04:05:17.545Z,1.67
2017-12-09T04:07:44.934Z,1.70
2017-12-09T04:10:12.316Z,1.72
2017-12-09T04:12:39.749Z,1.64
2017-12-09T04:15:07.237Z,1.67
2017-12-09T04:17:34.606Z,1.64
2017-12-09T04:20:01.993Z,1.73
2017-12-09T04:22:29.374Z,1.71
2017-12-09T04:24:56.834Z,1.65
2017-12-09T04:27:24.234Z,1.62
2017-12-09T04:29:51.612Z,1.70
2017-12-09T04:32:18.993Z,1.63
2017-12-09T04:34:46.390Z,1.64
2017-12-09T04:37:13.783Z,1.79
2017-12-09T04:39:41.158Z,1.81
2017-12-09T04:42:08.609Z,1.76
2017-12-09T04:44:36.066Z,1.82
2017-12-09T04:47:03.479Z,1.91
2017-12-09T04:49:30.874Z,1.72
2017-12-09T04:51:58.329Z,1.79
2017-12-09T04:54:25.804Z,1.78
2017-12-09T04:56:53.183Z,1.74
2017-12-09T04:59:20.572Z,1.75
2017-12-09T05:01:47.952Z,1.83
2017-12-09T05:04:15.334Z,1.98
2017-12-09T05:06:42.763Z,2.00
2017-12-09T05:09:10.223Z,1.87
2017-12-09T05:11:37.598Z,1.83
2017-12-09T05:14:04.982Z,1.82
2017-12-09T05:16:32.363Z,1.75
2017-12-09T05:18:59.750Z,1.77
2017-12-09T05:21:27.144Z,1.81
2017-12-09T05:23:54.546Z,1.91
2017-12-09T05:26:21.926Z,1.87
2017-12-09T05:28:49.330Z,1.84
2017-12-09T05:31:16.817Z,1.90
2017-12-09T05:33:44.209Z,1.94
2017-12-09T05:36:11.628Z,1.87
2017-12-09T05:38:39.014Z,1.66
2017-12-09T05:41:06.386Z,1.70
2017-12-09T05:43:33.786Z,1.58
2017-12-09T05:46:01.165Z,1.66
2017-12-09T05:48:28.551Z,1.72
2017-12-09T05:50:55.929Z,1.55
2017-12-09T05:53:23.303Z,1.65
2017-12-09T05:55:50.694Z,1.61
2017-12-09T05:58:18.118Z,1.55
2017-12-09T06:00:45.574Z,1.52
2017-12-09T06:03:13.030Z,1.46
2017-12-09T06:05:40.489Z,1.47
2017-12-09T06:08:07.872Z,1.59
2017-12-09T06:10:35.258Z,1.43
2017-12-09T06:13:02.633Z,1.44
2017-12-09T06:15:30.019Z,1.42
2017-12-09T06:17:57.406Z,1.45
2017-12-09T06:20:24.810Z,1.61
2017-12-09T06:22:52.186Z,1.58
2017-12-09T06:25:19.586Z,1.48
2017-12-09T06:27:46.979Z,1.40
2017-12-09T06:30:14.431Z,1.45
2017-12-09T06:32:41.807Z,1.37
2017-12-09T06:35:09.218Z,1.51
2017-12-09T06:37:36.594Z,1.56
2017-12-09T06:40:03.983Z,1.49
2017-12-09T06:42:31.354Z,1.57
2017-12-09T06:44:58.762Z,1.60
2017-12-09T06:47:26.146Z,1.51
2017-12-09T06:49:53.533Z,1.37
2017-12-09T06:52:20.910Z,1.43
2017-12-09T06:54:48.302Z,1.41
2017-12-09T06:57:15.679Z,1.47
2017-12-09T06:59:43.088Z,1.49
2017-12-09T07:02:10.541Z,1.43
2017-12-09T07:04:37.927Z,1.49
2017-12-09T07:07:05.309Z,1.54
2017-12-09T07:09:32.709Z,1.55
2017-12-09T07:12:00.090Z,1.67
2017-12-09T07:14:27.517Z,1.64
2017-12-09T07:16:54.895Z,1.64
2017-12-09T07:19:22.286Z,1.67
2017-12-09T07:21:49.659Z,1.53
2017-12-09T07:24:17.051Z,1.59
2017-12-09T07:26:44.422Z,1.65
2017-12-09T07:29:11.842Z,1.66
2017-12-09T07:31:39.225Z,1.66
2017-12-09T07:34:06.597Z,1.61
2017-12-09T07:36:34.017Z,1.80
2017-12-09T07:39:01.402Z,1.82
2017-12-09T07:41:28.818Z,1.72
2017-12-09T07:43:56.292Z,1.56
2017-12-09T07:46:23.746Z,1.66
2017-12-09T07:48:51.130Z,1.79
2017-12-09T07:51:18.542Z,1.76
2017-12-09T07:53:45.926Z,1.83
2017-12-09T07:56:13.307Z,1.90
2017-12-09T07:58:40.718Z,1.99
2017-12-09T08:01:08.118Z,1.97
2017-12-09T08:03:35.486Z,1.91
2017-12-09T08:06:02.870Z,1.94
2017-12-09T08:08:30.326Z,2.10
2017-12-09T08:10:57.722Z,2.09
2017-12-09T08:13:25.095Z,2.09
2017-12-09T08:15:52.475Z,2.15
2017-12-09T08:18:19.865Z,2.11
2017-12-09T08:20:47.242Z,2.11
2017-12-09T08:23:14.627Z,2.01
2017-12-09T08:25:42.010Z,2.00
2017-12-09T08:28:09.390Z,1.98
2017-12-09T08:30:36.770Z,2.12
2017-12-09T08:33:04.149Z,2.05
2017-12-09T08:35:31.542Z,2.02
2017-12-09T09:01:19.600Z,2.01
2017-12-09T09:03:46.990Z,2.19
2017-12-09T09:06:14.474Z,2.27
2017-12-09T09:08:42.030Z,2.49
2017-12-09T09:11:09.502Z,2.59
2017-12-09T09:13:36.945Z,2.71
2017-12-09T09:16:05.528Z,2.84
2017-12-09T09:51:10.841Z,2.88
2017-12-09T09:53:38.211Z,2.84
2017-12-09T09:56:05.645Z,2.87
2017-12-09T09:58:33.015Z,2.95
2017-12-09T10:01:00.400Z,2.89
2017-12-09T10:03:27.825Z,2.88
2017-12-09T10:05:55.200Z,2.97
2017-12-09T10:08:22.597Z,2.78
2017-12-09T10:10:49.978Z,2.84
2017-12-09T10:13:17.354Z,2.61
2017-12-09T10:15:44.755Z,2.69
2017-12-09T10:18:12.144Z,2.85
2017-12-09T10:20:39.530Z,2.93
2017-12-09T10:23:06.919Z,3.12
2017-12-09T10:25:34.311Z,3.05
2017-12-09T10:28:01.699Z,3.31
2017-12-09T10:30:29.107Z,3.21
2017-12-09T10:32:56.492Z,3.06
2017-12-09T10:35:23.875Z,3.09
2017-12-09T10:37:51.267Z,3.05
2017-12-09T10:40:18.654Z,2.97
2017-12-09T10:42:46.173Z,2.95
2017-12-09T10:45:13.564Z,2.98
2017-12-09T10:47:40.946Z,2.91
2017-12-09T10:50:08.344Z,3.21
2017-12-09T10:52:35.727Z,3.24
2017-12-09T10:55:03.114Z,3.41
2017-12-09T10:57:30.503Z,3.81
2017-12-09T10:59:57.896Z,4.05
2017-12-09T11:02:25.279Z,4.33
2017-12-09T11:04:52.679Z,4.60
2017-12-09T11:07:20.071Z,4.69
2017-12-09T11:09:47.465Z,4.51
2017-12-09T11:12:14.842Z,4.51
2017-12-09T11:14:42.264Z,4.44
2017-12-09T11:17:09.743Z,4.29
2017-12-09T11:19:37.122Z,4.23
2017-12-09T11:22:04.514Z,4.20
2017-12-09T11:24:31.900Z,3.95
2017-12-09T11:26:59.280Z,3.81
2017-12-09T11:29:49.395Z,3.68
2017-12-09T11:32:16.788Z,3.67
2017-12-09T11:34:44.163Z,3.78
2017-12-09T11:37:11.550Z,3.87
2017-12-09T11:39:38.926Z,3.67
2017-12-09T11:42:06.311Z,3.62
2017-12-09T11:44:33.712Z,3.71
2017-12-09T11:47:01.075Z,3.72
2017-12-09T11:49:28.455Z,3.99
2017-12-09T11:54:48.318Z,4.07
2017-12-09T11:57:15.722Z,3.79
2017-12-09T11:59:43.107Z,3.70
2017-12-09T12:02:10.503Z,3.72
2017-12-09T12:04:37.891Z,3.81
2017-12-09T12:07:05.290Z,3.77
2017-12-09T12:09:32.671Z,3.71
2017-12-09T12:12:00.063Z,3.80
2017-12-09T12:14:27.466Z,3.91
2017-12-09T12:16:54.851Z,3.87
2017-12-09T12:19:22.243Z,3.97
2017-12-09T12:21:49.627Z,3.93
2017-12-09T12:24:17.009Z,4.07
2017-12-09T12:26:44.402Z,4.34
2017-12-09T12:29:11.782Z,4.57
2017-12-09T12:31:39.179Z,4.68
2017-12-09T12:34:06.575Z,4.54
2017-12-09T12:36:33.969Z,4.40
2017-12-09T12:39:01.369Z,4.28
2017-12-09T12:41:28.768Z,4.30
2017-12-09T12:43:56.150Z,4.27
2017-12-09T12:46:23.540Z,4.32
2017-12-09T12:48:50.912Z,4.34
2017-12-09T12:51:18.308Z,4.31
2017-12-09T12:53:45.687Z,4.41
2017-12-09T12:56:13.070Z,4.54
2017-12-09T12:58:40.461Z,4.66
2017-12-09T13:01:07.869Z,4.66
2017-12-09T13:03:35.238Z,4.70
2017-12-09T13:06:02.635Z,4.91
2017-12-09T13:08:30.034Z,4.69
2017-12-09T13:10:57.410Z,4.38
2017-12-09T13:13:24.798Z,4.02
2017-12-09T13:15:52.178Z,4.13
2017-12-09T13:18:19.607Z,4.03
2017-12-09T13:20:46.991Z,4.12
2017-12-09T13:23:14.384Z,4.13
2017-12-09T13:25:41.766Z,4.05
2017-12-09T13:28:09.160Z,4.17
2017-12-09T13:30:36.539Z,4.04
2017-12-09T13:33:03.930Z,3.96
2017-12-09T13:35:31.315Z,4.01
2017-12-09T13:37:58.705Z,3.90
2017-12-09T13:40:26.141Z,3.89
2017-12-09T13:42:53.613Z,3.68
2017-12-09T13:45:20.995Z,3.77
2017-12-09T13:47:48.446Z,3.70
2017-12-09T13:50:15.822Z,3.81
2017-12-09T13:52:43.214Z,3.64
2017-12-09T13:55:10.599Z,3.81
2017-12-09T13:57:37.984Z,3.77
2017-12-09T14:00:05.367Z,3.84
2017-12-09T14:02:32.751Z,3.73
2017-12-09T14:05:00.135Z,3.72
2017-12-09T14:07:27.531Z,3.77
2017-12-09T14:09:54.910Z,3.93
2017-12-09T14:12:22.316Z,3.97
2017-12-09T14:14:49.696Z,4.11
2017-12-09T14:17:17.078Z,4.18
2017-12-09T14:19:44.586Z,4.14
2017-12-09T14:22:11.968Z,4.26
2017-12-09T14:24:39.358Z,4.16
2017-12-09T14:27:06.760Z,4.27
2017-12-09T14:29:34.150Z,4.30
2017-12-09T14:32:01.522Z,4.22
2017-12-09T14:34:28.909Z,4.13
2017-12-09T14:36:56.299Z,4.04
2017-12-09T14:39:23.798Z,4.11
2017-12-09T14:41:51.199Z,3.99
2017-12-09T14:44:18.599Z,4.14
2017-12-09T14:46:45.985Z,4.17
2017-12-09T14:49:13.420Z,4.21
2017-12-09T14:51:40.759Z,4.23
2017-12-09T14:54:08.149Z,4.39
2017-12-09T14:56:35.530Z,4.46
2017-12-09T14:59:02.923Z,4.29
2017-12-09T15:01:30.309Z,4.26
2017-12-09T15:03:57.725Z,4.10
2017-12-09T15:06:25.100Z,4.17
2017-12-09T15:08:52.490Z,4.15
2017-12-09T15:11:19.921Z,4.15
2017-12-09T15:13:47.315Z,4.18
2017-12-09T15:16:14.715Z,4.19
2017-12-09T15:18:42.102Z,4.27
2017-12-09T15:21:09.498Z,4.23
2017-12-09T15:23:36.879Z,4.31
2017-12-09T15:26:04.354Z,4.40
2017-12-09T15:28:31.747Z,4.32
2017-12-09T15:30:59.142Z,4.25
2017-12-09T15:33:26.618Z,4.24
2017-12-09T15:35:54.036Z,4.13
2017-12-09T15:38:21.532Z,4.34
2017-12-09T15:40:48.913Z,4.26
2017-12-09T15:43:16.298Z,4.38
2017-12-09T15:45:43.690Z,4.22
2017-12-09T15:48:11.080Z,4.16
2017-12-09T15:50:38.470Z,4.19
2017-12-09T15:53:05.858Z,4.12
2017-12-09T15:55:33.256Z,4.16
2017-12-09T15:58:00.635Z,4.01
2017-12-09T16:00:28.040Z,4.10
2017-12-09T16:02:55.415Z,3.96
2017-12-09T16:05:22.815Z,3.81
2017-12-09T16:07:50.203Z,3.86
2017-12-09T16:10:17.605Z,4.14
2017-12-09T16:12:45.325Z,3.99
2017-12-09T16:15:12.707Z,3.84
2017-12-09T16:17:40.245Z,3.65
2017-12-09T16:20:07.619Z,3.64
2017-12-09T16:22:35.011Z,3.78
2017-12-09T16:25:02.403Z,3.91
2017-12-09T16:27:29.802Z,3.93
2017-12-09T16:29:57.187Z,3.89
2017-12-09T16:32:24.593Z,3.83
2017-12-09T16:34:51.971Z,3.53
2017-12-09T16:37:19.362Z,3.74
2017-12-09T16:39:46.751Z,3.68
2017-12-09T16:42:14.144Z,3.75
2017-12-09T16:44:41.547Z,3.75
2017-12-09T16:47:08.934Z,3.81
2017-12-09T16:49:36.319Z,3.67
2017-12-09T16:52:03.706Z,3.60
2017-12-09T16:54:31.110Z,3.50
2017-12-09T16:56:58.500Z,3.53
2017-12-09T16:59:25.995Z,3.71
2017-12-09T17:01:53.395Z,3.72
2017-12-09T17:04:20.786Z,3.71
2017-12-09T17:06:48.171Z,3.72
2017-12-09T17:09:15.711Z,3.58
2017-12-09T17:11:43.100Z,3.69
2017-12-09T17:14:10.492Z,3.54
2017-12-09T17:16:37.887Z,3.56
2017-12-09T17:19:05.277Z,3.49
2017-12-09T17:21:32.658Z,3.69
2017-12-09T17:24:00.043Z,3.64
2017-12-09T17:26:27.428Z,3.65
2017-12-09T17:28:54.874Z,3.61
2017-12-09T17:31:22.198Z,3.32
2017-12-09T17:33:49.590Z,3.37
2017-12-09T17:36:16.974Z,3.32
2017-12-09T17:38:44.360Z,3.36
2017-12-09T17:41:11.751Z,3.44
2017-12-09T17:43:39.238Z,3.34
2017-12-09T17:46:06.634Z,3.22
2017-12-09T17:48:34.030Z,3.19
2017-12-09T17:51:01.952Z,3.20
2017-12-09T17:53:29.354Z,3.28
2017-12-09T17:55:56.734Z,3.54
2017-12-09T17:58:24.143Z,3.36
2017-12-09T18:00:51.534Z,3.47
2017-12-09T18:03:18.916Z,3.45
2017-12-09T18:05:46.359Z,3.63
2017-12-09T18:08:13.708Z,3.57
2017-12-09T18:10:41.090Z,3.48
2017-12-09T18:13:08.487Z,3.61
2017-12-09T18:15:35.877Z,3.51
2017-12-09T18:18:03.341Z,3.56
2017-12-09T18:20:30.752Z,3.68
2017-12-09T18:22:58.136Z,3.60
2017-12-09T18:25:25.551Z,3.30
2017-12-09T18:27:52.935Z,3.29
2017-12-09T18:30:20.333Z,3.36
2017-12-09T18:32:47.724Z,3.25
2017-12-09T18:35:15.137Z,3.31
2017-12-09T18:37:42.509Z,3.08
2017-12-09T18:40:09.893Z,3.16
2017-12-09T18:42:37.279Z,3.21
2017-12-09T18:45:04.662Z,3.21
2017-12-09T18:47:32.042Z,3.23
2017-12-09T18:49:59.426Z,3.25
2017-12-09T18:52:26.838Z,3.28
2017-12-09T18:54:54.222Z,3.36
2017-12-09T18:57:21.602Z,3.30
2017-12-09T18:59:48.991Z,3.31
2017-12-09T19:02:16.380Z,3.13
2017-12-09T19:04:43.772Z,3.25
2017-12-09T19:07:11.174Z,3.27
2017-12-09T19:09:38.596Z,3.21
2017-12-09T19:12:06.008Z,3.23
2017-12-09T19:14:33.400Z,3.36
2017-12-09T19:17:00.786Z,3.32
2017-12-09T19:19:28.164Z,3.33
2017-12-09T19:21:55.555Z,3.36
2017-12-09T19:24:22.934Z,3.33
2017-12-09T19:26:50.328Z,3.22
2017-12-09T19:29:17.716Z,3.29
2017-12-09T19:31:45.099Z,3.21
2017-12-09T19:34:12.476Z,3.13
2017-12-09T19:36:39.870Z,3.09
2017-12-09T19:39:07.261Z,3.16
2017-12-09T19:41:34.742Z,3.19
2017-12-09T19:44:02.119Z,3.08
2017-12-09T19:46:29.544Z,3.10
2017-12-09T19:48:57.891Z,2.91
2017-12-09T19:51:25.275Z,2.88
2017-12-09T19:53:52.659Z,2.93
2017-12-09T19:56:20.116Z,2.95
2017-12-09T19:58:47.503Z,2.96
2017-12-09T20:01:14.927Z,3.18
2017-12-09T20:03:42.302Z,3.11
2017-12-09T20:06:09.687Z,3.18
2017-12-09T20:08:37.074Z,3.22
2017-12-09T20:11:04.446Z,3.08
2017-12-09T20:13:32.670Z,3.14
2017-12-09T20:16:00.054Z,3.19
2017-12-09T20:18:27.445Z,3.14
2017-12-09T20:20:54.818Z,3.16
2017-12-09T20:23:22.211Z,3.14
2017-12-09T20:25:49.586Z,2.99
2017-12-09T20:28:16.982Z,3.00
2017-12-09T20:30:44.410Z,2.88
2017-12-09T20:33:11.734Z,2.97
2017-12-09T20:35:39.130Z,2.98
2017-12-09T20:38:06.525Z,3.11
2017-12-09T20:40:33.899Z,3.09
2017-12-09T20:43:01.294Z,3.09
2017-12-09T20:45:28.687Z,2.97
2017-12-09T20:47:56.079Z,2.98
2017-12-09T20:50:23.455Z,2.97
2017-12-09T20:52:50.843Z,2.79
2017-12-09T20:55:18.235Z,2.77
2017-12-09T20:57:45.617Z,2.73
2017-12-09T21:00:13.002Z,2.76
2017-12-09T21:02:40.379Z,2.86
2017-12-09T21:05:07.767Z,2.66
2017-12-09T21:07:35.146Z,2.64
2017-12-09T21:10:02.541Z,2.68
2017-12-09T21:12:29.915Z,2.74
2017-12-09T21:14:57.307Z,2.79
2017-12-09T21:17:24.684Z,2.75
2017-12-09T21:19:52.091Z,2.77
2017-12-09T21:22:19.460Z,3.02
2017-12-09T21:24:46.838Z,3.03
2017-12-09T21:27:14.227Z,3.07
2017-12-09T21:29:41.623Z,2.97
2017-12-09T21:32:09.018Z,3.05
2017-12-09T21:34:36.398Z,3.01
2017-12-09T21:37:03.783Z,2.91
2017-12-09T21:39:31.243Z,3.00
2017-12-09T21:41:58.634Z,2.95
2017-12-09T21:44:26.030Z,2.89
2017-12-09T21:46:53.707Z,2.97
2017-12-09T21:49:21.078Z,2.87
2017-12-09T21:51:48.502Z,2.78
2017-12-09T21:54:16.390Z,2.81
2017-12-09T21:56:43.835Z,2.65
2017-12-09T21:59:11.222Z,2.74
2017-12-09T22:01:38.645Z,2.78
2017-12-09T22:04:06.028Z,2.83
2017-12-09T22:06:33.448Z,2.80
2017-12-09T22:09:00.846Z,2.84
2017-12-09T22:11:28.253Z,2.80
2017-12-09T22:13:55.751Z,2.84
2017-12-09T22:16:23.832Z,2.84
2017-12-09T22:18:51.218Z,2.92
2017-12-09T22:21:18.611Z,2.93
2017-12-09T22:23:46.007Z,2.84
2017-12-09T22:26:13.415Z,2.83
2017-12-09T22:28:40.802Z,2.97
2017-12-09T22:31:08.193Z,2.88
2017-12-09T22:33:35.692Z,2.89
2017-12-09T22:36:03.085Z,2.89
2017-12-09T22:38:30.467Z,2.79
2017-12-09T22:40:57.858Z,2.76
2017-12-09T22:43:25.310Z,2.88
2017-12-09T22:45:52.694Z,2.94
2017-12-09T22:48:20.086Z,2.82
2017-12-09T22:50:47.474Z,2.88
2017-12-09T22:53:14.871Z,2.85
2017-12-09T22:55:42.263Z,2.81
2017-12-09T22:58:09.739Z,2.80
2017-12-09T23:00:37.131Z,2.75
2017-12-09T23:03:04.518Z,2.75
2017-12-09T23:05:31.903Z,2.65
2017-12-09T23:07:59.294Z,2.53
2017-12-09T23:10:26.696Z,2.68
2017-12-09T23:12:54.182Z,2.70
2017-12-09T23:15:21.558Z,2.80
2017-12-09T23:17:48.951Z,2.81
2017-12-09T23:20:16.331Z,2.82
2017-12-09T23:22:43.729Z,2.75
2017-12-09T23:25:11.111Z,2.65
2017-12-09T23:27:38.499Z,2.47
2017-12-09T23:30:05.889Z,2.63
2017-12-09T23:32:33.307Z,2.51
2017-12-09T23:35:00.692Z,2.72
2017-12-09T23:37:28.087Z,2.72
2017-12-09T23:39:55.475Z,2.65
2017-12-09T23:42:22.871Z,2.60
2017-12-09T23:44:50.263Z,2.80
2017-12-09T23:47:17.650Z,2.74
2017-12-09T23:49:45.042Z,2.78
2017-12-09T23:52:12.435Z,2.74
2017-12-09T23:54:39.831Z,2.73
2017-12-09T23:57:07.276Z,2.74
2017-12-09T23:59:34.627Z,2.53
